Аэропорт: Уральск. Уральск

ICAO: UARR

METAR:
Информация по данной станции не доступна
METAR:
2021-04-21 20:01:00
TAF UARR 212001Z 2121/2206 13007MPS 9999 BKN011 BKN033CB TEMPO 2121/2203 3100 -SHRA BR BKN005 BKN020CB